createdAt,value
2022-10-05T00:01:35.131Z,15.29
2022-10-05T00:04:23.947Z,15.28
2022-10-05T00:06:59.251Z,15.28
2022-10-05T00:09:32.293Z,15.27
2022-10-05T00:12:04.543Z,15.27
2022-10-05T00:14:35.555Z,15.28
2022-10-05T00:17:05.595Z,15.29
2022-10-05T00:19:38.331Z,15.27
2022-10-05T00:22:16.911Z,15.27
2022-10-05T00:24:46.041Z,15.28
2022-10-05T00:27:31.628Z,15.24
2022-10-05T00:30:02.604Z,15.25
2022-10-05T00:32:30.341Z,15.25
2022-10-05T00:34:58.052Z,15.22
2022-10-05T00:37:25.868Z,15.22
2022-10-05T00:39:53.620Z,15.22
2022-10-05T00:42:41.803Z,15.22
2022-10-05T00:45:23.955Z,15.21
2022-10-05T00:48:20.163Z,15.19
2022-10-05T00:51:00.197Z,15.21
2022-10-05T00:54:05.241Z,15.19
2022-10-05T00:56:33.018Z,15.19
2022-10-05T00:59:19.388Z,15.19
2022-10-05T01:01:55.573Z,15.22
2022-10-05T01:04:39.297Z,15.19
2022-10-05T01:07:40.861Z,15.18
2022-10-05T01:10:35.404Z,15.15
2022-10-05T01:13:07.339Z,15.17
2022-10-05T01:15:49.235Z,15.17
2022-10-05T01:18:27.498Z,15.17
2022-10-05T01:21:11.944Z,15.18
2022-10-05T01:24:03.882Z,15.18
2022-10-05T01:27:08.874Z,15.19
2022-10-05T01:30:17.738Z,15.17
2022-10-05T01:33:01.095Z,15.12
2022-10-05T01:35:37.852Z,15.11
2022-10-05T01:38:08.779Z,15.11
2022-10-05T01:41:05.069Z,15.12
2022-10-05T01:43:49.131Z,15.14
2022-10-05T01:46:43.290Z,15.11
2022-10-05T01:49:20.167Z,15.12
2022-10-05T01:52:08.410Z,15.10
2022-10-05T01:55:03.979Z,15.10
2022-10-05T01:57:37.258Z,15.07
2022-10-05T02:00:20.003Z,15.02
2022-10-05T02:03:07.511Z,15.00
2022-10-05T02:05:51.762Z,14.97
2022-10-05T02:08:26.668Z,14.88
2022-10-05T02:11:02.443Z,14.90
2022-10-05T02:13:43.924Z,14.84
2022-10-05T02:16:31.058Z,14.83
2022-10-05T02:19:11.853Z,14.77
2022-10-05T02:21:46.288Z,14.74
2022-10-05T02:24:26.947Z,14.70
2022-10-05T02:26:56.525Z,14.69
2022-10-05T02:29:27.651Z,14.65
2022-10-05T02:32:01.836Z,14.65
2022-10-05T02:34:31.962Z,14.62
2022-10-05T02:37:38.455Z,14.66
2022-10-05T02:40:20.871Z,14.63
2022-10-05T02:42:54.609Z,14.62
2022-10-05T02:45:26.212Z,14.55
2022-10-05T02:48:22.429Z,14.55
2022-10-05T02:51:08.340Z,14.56
2022-10-05T02:54:10.193Z,14.57
2022-10-05T02:57:01.933Z,14.62
2022-10-05T02:59:43.084Z,14.60
2022-10-05T03:02:18.155Z,14.57
2022-10-05T03:05:01.697Z,14.57
2022-10-05T03:08:09.704Z,14.53
2022-10-05T03:10:47.699Z,14.50
2022-10-05T03:13:54.197Z,14.50
2022-10-05T03:16:45.162Z,14.50
2022-10-05T03:19:39.550Z,14.50
2022-10-05T03:22:32.177Z,14.43
2022-10-05T03:25:24.365Z,14.43
2022-10-05T03:28:09.781Z,14.45
2022-10-05T03:30:41.756Z,14.42
2022-10-05T03:33:23.570Z,14.39
2022-10-05T03:36:11.843Z,14.39
2022-10-05T03:39:07.588Z,14.40
2022-10-05T03:41:45.133Z,14.47
2022-10-05T03:44:31.887Z,14.46
2022-10-05T03:47:30.397Z,14.49
2022-10-05T03:50:22.708Z,14.49
2022-10-05T03:53:14.975Z,14.49
2022-10-05T03:56:05.128Z,14.53
2022-10-05T03:58:55.772Z,14.52
2022-10-05T04:01:36.251Z,14.50
2022-10-05T04:04:07.153Z,14.52
2022-10-05T04:06:40.569Z,14.57
2022-10-05T04:09:16.267Z,14.55
2022-10-05T04:12:23.688Z,14.53
2022-10-05T04:14:59.826Z,14.56
2022-10-05T04:17:35.643Z,14.59
2022-10-05T04:20:21.253Z,14.56
2022-10-05T04:23:15.098Z,14.57
2022-10-05T04:25:57.514Z,14.59
2022-10-05T04:28:44.233Z,14.60
2022-10-05T04:31:21.278Z,14.66
2022-10-05T04:34:00.520Z,14.65
2022-10-05T04:36:38.254Z,14.63
2022-10-05T04:39:15.622Z,14.59
2022-10-05T04:41:49.772Z,14.63
2022-10-05T04:44:27.767Z,14.67
2022-10-05T04:47:13.110Z,14.67
2022-10-05T04:50:01.664Z,14.65
2022-10-05T04:53:05.574Z,14.59
2022-10-05T04:56:17.813Z,14.62
2022-10-05T04:58:58.635Z,14.62
2022-10-05T05:01:41.527Z,14.63
2022-10-05T05:04:32.219Z,14.62
2022-10-05T05:07:42.317Z,14.63
2022-10-05T05:10:23.914Z,14.70
2022-10-05T05:13:09.588Z,14.69
2022-10-05T05:15:53.945Z,14.69
2022-10-05T05:18:21.905Z,14.74
2022-10-05T05:21:02.247Z,14.73
2022-10-05T05:23:59.324Z,14.72
2022-10-05T05:27:06.073Z,14.73
2022-10-05T05:30:00.378Z,14.69
2022-10-05T05:32:44.023Z,14.73
2022-10-05T05:35:39.958Z,14.69
2022-10-05T05:38:32.808Z,14.69
2022-10-05T05:41:34.531Z,14.69
2022-10-05T05:44:21.916Z,14.70
2022-10-05T05:47:28.198Z,14.66
2022-10-05T05:50:32.305Z,14.70
2022-10-05T05:53:10.819Z,14.70
2022-10-05T05:56:01.255Z,14.67
2022-10-05T05:59:00.761Z,14.66
2022-10-05T06:01:49.011Z,14.66
2022-10-05T06:04:28.216Z,14.66
2022-10-05T06:06:58.146Z,14.69
2022-10-05T06:09:50.377Z,14.70
2022-10-05T06:12:37.268Z,14.67
2022-10-05T06:15:34.487Z,14.70
2022-10-05T06:18:10.565Z,14.67
2022-10-05T06:21:05.748Z,14.72
2022-10-05T06:23:48.669Z,14.67
2022-10-05T06:26:50.817Z,14.69
2022-10-05T06:29:23.785Z,14.69
2022-10-05T06:32:13.266Z,14.66
2022-10-05T06:35:06.121Z,14.67
2022-10-05T06:38:04.501Z,14.69
2022-10-05T06:40:41.710Z,14.67
2022-10-05T06:43:40.411Z,14.70
2022-10-05T06:46:58.076Z,14.72
2022-10-05T06:49:49.327Z,14.73
2022-10-05T06:53:02.618Z,14.76
2022-10-05T06:55:37.518Z,14.77
2022-10-05T06:58:13.568Z,14.81
2022-10-05T07:00:54.037Z,14.87
2022-10-05T07:03:44.795Z,14.93
2022-10-05T07:06:46.575Z,14.94
2022-10-05T07:09:53.407Z,14.98
2022-10-05T07:12:58.611Z,15.02
2022-10-05T07:15:56.551Z,15.10
2022-10-05T07:18:46.267Z,15.08
2022-10-05T07:25:08.408Z,15.10
2022-10-05T07:27:59.714Z,15.14
2022-10-05T07:30:28.488Z,15.18
2022-10-05T07:33:05.358Z,15.21
2022-10-05T07:36:06.403Z,15.25
2022-10-05T07:38:54.684Z,15.27
2022-10-05T07:41:32.688Z,15.31
2022-10-05T07:44:18.504Z,15.36
2022-10-05T07:47:30.277Z,15.40
2022-10-05T07:50:20.340Z,15.43
2022-10-05T07:53:15.137Z,15.49
2022-10-05T07:56:00.178Z,15.55
2022-10-05T07:58:44.207Z,15.62
2022-10-05T08:01:27.577Z,15.65
2022-10-05T08:04:11.367Z,15.71
2022-10-05T08:06:42.818Z,15.73
2022-10-05T08:09:45.513Z,15.76
2022-10-05T08:12:16.326Z,15.77
2022-10-05T08:15:14.321Z,15.83
2022-10-05T08:17:55.217Z,15.82
2022-10-05T08:20:41.623Z,15.86
2022-10-05T08:23:25.849Z,15.87
2022-10-05T08:26:03.699Z,15.91
2022-10-05T08:28:41.695Z,15.91
2022-10-05T08:31:20.642Z,15.97
2022-10-05T08:33:54.325Z,16.01
2022-10-05T08:36:55.707Z,16.00
2022-10-05T08:39:29.717Z,16.02
2022-10-05T08:42:09.359Z,16.08
2022-10-05T08:44:40.416Z,16.11
2022-10-05T08:47:08.379Z,16.11
2022-10-05T08:50:13.190Z,16.15
2022-10-05T08:53:04.449Z,16.21
2022-10-05T08:56:06.808Z,16.22
2022-10-05T08:58:38.988Z,16.22
2022-10-05T09:01:22.112Z,16.29
2022-10-05T09:04:15.446Z,16.39
2022-10-05T09:07:16.603Z,16.44
2022-10-05T09:10:15.433Z,16.56
2022-10-05T09:12:55.203Z,16.57
2022-10-05T09:15:44.021Z,16.65
2022-10-05T09:18:30.291Z,16.62
2022-10-05T09:21:10.470Z,16.67
2022-10-05T09:23:47.402Z,16.70
2022-10-05T09:26:42.655Z,16.85
2022-10-05T09:29:43.856Z,16.95
2022-10-05T09:32:49.536Z,16.87
2022-10-05T09:35:26.312Z,16.91
2022-10-05T09:38:12.403Z,16.85
2022-10-05T09:40:58.721Z,16.90
2022-10-05T09:43:40.391Z,16.97
2022-10-05T09:46:33.539Z,17.00
2022-10-05T09:49:07.531Z,16.99
2022-10-05T09:52:13.954Z,17.07
2022-10-05T09:55:21.170Z,17.14
2022-10-05T09:58:04.430Z,17.25
2022-10-05T10:00:34.979Z,17.31
2022-10-05T10:03:05.878Z,17.32
2022-10-05T10:05:49.681Z,17.39
2022-10-05T10:08:45.591Z,17.46
2022-10-05T10:11:41.322Z,17.49
2022-10-05T10:14:37.151Z,17.61
2022-10-05T10:17:26.822Z,17.84
2022-10-05T10:20:16.019Z,17.77
2022-10-05T10:23:04.941Z,17.72
2022-10-05T10:25:47.580Z,17.73
2022-10-05T10:28:52.494Z,17.82
2022-10-05T10:32:14.585Z,17.90
2022-10-05T10:35:07.038Z,17.89
2022-10-05T10:37:40.575Z,17.97
2022-10-05T10:40:23.659Z,18.14
2022-10-05T10:43:22.271Z,18.24
2022-10-05T10:46:20.697Z,18.37
2022-10-05T10:48:49.958Z,18.41
2022-10-05T10:51:56.436Z,18.42
2022-10-05T10:55:05.762Z,18.59
2022-10-05T10:57:59.370Z,18.42
2022-10-05T11:00:44.129Z,18.32
2022-10-05T11:03:44.862Z,18.32
2022-10-05T11:07:03.350Z,18.28
2022-10-05T11:09:34.084Z,18.29
2022-10-05T11:12:13.937Z,18.37
2022-10-05T11:15:06.729Z,18.31
2022-10-05T11:18:04.693Z,18.29
2022-10-05T11:20:35.428Z,18.35
2022-10-05T11:23:34.168Z,18.53
2022-10-05T11:26:32.966Z,18.59
2022-10-05T11:29:38.563Z,18.62
2022-10-05T11:32:16.568Z,18.72
2022-10-05T11:35:24.876Z,18.65
2022-10-05T11:38:28.363Z,18.46
2022-10-05T11:41:05.212Z,18.55
2022-10-05T11:44:19.197Z,18.51
2022-10-05T11:47:21.335Z,18.55
2022-10-05T11:50:16.677Z,18.62
2022-10-05T11:53:07.706Z,18.63
2022-10-05T11:55:44.080Z,18.62
2022-10-05T11:58:24.038Z,18.73
2022-10-05T12:01:11.383Z,18.74
2022-10-05T12:04:04.221Z,18.73
2022-10-05T12:06:59.525Z,18.72
2022-10-05T12:10:04.985Z,18.63
2022-10-05T12:13:01.369Z,18.74
2022-10-05T12:15:52.692Z,18.79
2022-10-05T12:18:28.675Z,18.84
2022-10-05T12:21:46.635Z,18.84
2022-10-05T12:24:37.587Z,18.93
2022-10-05T12:27:25.436Z,18.97
2022-10-05T12:30:19.748Z,19.00
2022-10-05T12:33:02.540Z,19.10
2022-10-05T12:35:53.552Z,19.06
2022-10-05T12:38:33.834Z,19.07
2022-10-05T12:41:07.951Z,19.08
2022-10-05T12:44:02.390Z,19.18
2022-10-05T12:46:51.044Z,19.21
2022-10-05T12:49:33.790Z,19.36
2022-10-05T12:52:26.832Z,19.49
2022-10-05T12:55:05.430Z,19.67
2022-10-05T12:57:42.017Z,19.82
2022-10-05T13:00:15.218Z,20.01
2022-10-05T13:02:50.904Z,19.87
2022-10-05T13:05:38.431Z,19.83
2022-10-05T13:08:13.451Z,19.77
2022-10-05T13:10:45.312Z,19.83
2022-10-05T13:13:46.782Z,19.72
2022-10-05T13:16:27.786Z,19.76
2022-10-05T13:19:14.349Z,19.74
2022-10-05T13:22:16.700Z,19.83
2022-10-05T13:25:04.877Z,19.91
2022-10-05T13:27:40.089Z,19.97
2022-10-05T13:30:17.025Z,19.91
2022-10-05T13:32:52.154Z,19.86
2022-10-05T13:35:25.072Z,20.01
2022-10-05T13:38:24.005Z,19.93
2022-10-05T13:41:12.154Z,19.94
2022-10-05T13:43:45.797Z,19.93
2022-10-05T13:46:27.762Z,19.84
2022-10-05T13:49:33.448Z,19.86
2022-10-05T13:52:20.416Z,19.94
2022-10-05T13:55:12.418Z,19.91
2022-10-05T13:58:05.985Z,19.86
2022-10-05T14:00:53.077Z,19.83
2022-10-05T14:04:13.379Z,19.76
2022-10-05T14:06:41.363Z,19.77
2022-10-05T14:09:25.422Z,19.77
2022-10-05T14:12:14.915Z,19.83
2022-10-05T14:14:50.365Z,19.89
2022-10-05T14:17:38.041Z,19.84
2022-10-05T14:20:23.850Z,19.80
2022-10-05T14:23:00.697Z,19.79
2022-10-05T14:25:30.296Z,19.76
2022-10-05T14:28:00.042Z,19.84
2022-10-05T14:30:30.510Z,19.89
2022-10-05T14:33:04.168Z,19.77
2022-10-05T14:35:57.000Z,19.72
2022-10-05T14:38:31.943Z,19.73
2022-10-05T14:41:25.466Z,19.72
2022-10-05T14:44:27.154Z,19.69
2022-10-05T14:47:02.716Z,19.62
2022-10-05T14:49:37.242Z,19.66
2022-10-05T14:52:23.722Z,19.51
2022-10-05T14:55:01.052Z,19.54
2022-10-05T14:57:50.299Z,19.61
2022-10-05T15:00:19.045Z,19.63
2022-10-05T15:03:20.334Z,19.46
2022-10-05T15:05:55.848Z,19.29
2022-10-05T15:08:41.564Z,19.18
2022-10-05T15:11:37.178Z,19.14
2022-10-05T15:14:25.223Z,19.11
2022-10-05T15:17:02.481Z,19.04
2022-10-05T15:19:39.291Z,18.90
2022-10-05T15:22:31.638Z,18.90
2022-10-05T15:25:12.919Z,18.84
2022-10-05T15:28:04.868Z,18.77
2022-10-05T15:30:37.743Z,18.73
2022-10-05T15:33:24.567Z,18.74
2022-10-05T15:36:05.344Z,18.67
2022-10-05T15:39:26.976Z,18.69
2022-10-05T15:42:00.342Z,18.55
2022-10-05T15:45:06.365Z,18.53
2022-10-05T15:47:56.242Z,18.37
2022-10-05T15:50:28.141Z,18.34
2022-10-05T15:52:58.967Z,18.28
2022-10-05T15:55:35.374Z,18.28
2022-10-05T15:58:18.141Z,18.28
2022-10-05T16:00:49.237Z,18.22
2022-10-05T16:03:49.813Z,18.25
2022-10-05T16:06:48.450Z,18.19
2022-10-05T16:09:52.829Z,18.17
2022-10-05T16:12:50.198Z,18.12
2022-10-05T16:15:42.714Z,18.10
2022-10-05T16:18:18.308Z,18.05
2022-10-05T16:21:09.522Z,18.10
2022-10-05T16:24:06.635Z,18.07
2022-10-05T16:26:59.338Z,18.02
2022-10-05T16:29:46.593Z,17.94
2022-10-05T16:32:25.096Z,17.91
2022-10-05T16:35:17.811Z,17.89
2022-10-05T16:38:00.577Z,17.84
2022-10-05T16:41:01.932Z,17.82
2022-10-05T16:44:13.147Z,17.74
2022-10-05T16:46:44.291Z,17.72
2022-10-05T16:49:22.041Z,17.67
2022-10-05T16:51:53.138Z,17.63
2022-10-05T16:54:39.059Z,17.57
2022-10-05T16:57:23.094Z,17.56
2022-10-05T17:00:20.428Z,17.50
2022-10-05T17:03:12.957Z,17.52
2022-10-05T17:06:00.789Z,17.46
2022-10-05T17:09:10.664Z,17.45
2022-10-05T17:12:13.826Z,17.36
2022-10-05T17:15:03.700Z,17.32
2022-10-05T17:18:09.188Z,17.32
2022-10-05T17:20:45.585Z,17.27
2022-10-05T17:23:39.909Z,17.29
2022-10-05T17:26:22.554Z,17.28
2022-10-05T17:29:25.106Z,17.24
2022-10-05T17:32:07.835Z,17.24
2022-10-05T17:35:02.839Z,17.19
2022-10-05T17:37:31.977Z,17.17
2022-10-05T17:40:02.361Z,17.17
2022-10-05T17:42:30.582Z,17.17
2022-10-05T17:45:21.427Z,17.18
2022-10-05T17:48:04.891Z,17.14
2022-10-05T17:51:02.456Z,17.15
2022-10-05T17:54:05.390Z,17.19
2022-10-05T17:56:56.113Z,17.22
2022-10-05T17:59:44.535Z,17.22
2022-10-05T18:02:23.290Z,17.22
2022-10-05T18:05:01.498Z,17.21
2022-10-05T18:07:29.611Z,17.19
2022-10-05T18:10:01.050Z,17.18
2022-10-05T18:13:08.019Z,17.19
2022-10-05T18:15:46.535Z,17.24
2022-10-05T18:18:34.633Z,17.21
2022-10-05T18:21:15.174Z,17.24
2022-10-05T18:23:52.545Z,17.25
2022-10-05T18:26:51.989Z,17.25
2022-10-05T18:30:05.377Z,17.25
2022-10-05T18:32:58.678Z,17.25
2022-10-05T18:35:42.432Z,17.32
2022-10-05T18:38:19.230Z,17.34
2022-10-05T18:41:02.668Z,17.34
2022-10-05T18:43:42.594Z,17.34
2022-10-05T18:46:16.594Z,17.35
2022-10-05T18:48:56.468Z,17.38
2022-10-05T18:51:51.657Z,17.38
2022-10-05T18:54:26.973Z,17.39
2022-10-05T18:56:55.130Z,17.36
2022-10-05T18:59:37.936Z,17.40
2022-10-05T19:02:19.731Z,17.42
2022-10-05T19:04:50.665Z,17.36
2022-10-05T19:07:32.729Z,17.43
2022-10-05T19:10:04.912Z,17.42
2022-10-05T19:12:57.765Z,17.40
2022-10-05T19:15:53.455Z,17.39
2022-10-05T19:18:41.935Z,17.45
2022-10-05T19:21:12.562Z,17.42
2022-10-05T19:24:06.387Z,17.45
2022-10-05T19:26:42.332Z,17.43
2022-10-05T19:29:27.030Z,17.45
2022-10-05T19:32:14.921Z,17.46
2022-10-05T19:34:45.630Z,17.46
2022-10-05T19:37:23.380Z,17.45
2022-10-05T19:40:10.208Z,17.48
2022-10-05T19:42:59.065Z,17.55
2022-10-05T19:45:31.912Z,17.55
2022-10-05T19:48:28.172Z,17.57
2022-10-05T19:50:59.001Z,17.56
2022-10-05T19:53:29.849Z,17.55
2022-10-05T19:56:21.635Z,17.53
2022-10-05T19:58:56.337Z,17.61
2022-10-05T20:01:35.434Z,17.62
2022-10-05T20:04:05.006Z,17.66
2022-10-05T20:06:33.269Z,17.69
2022-10-05T20:09:20.128Z,17.72
2022-10-05T20:11:52.773Z,17.66
2022-10-05T20:14:57.252Z,17.67
2022-10-05T20:17:49.322Z,17.50
2022-10-05T20:20:34.597Z,15.80
2022-10-05T20:23:25.515Z,15.17
2022-10-05T20:26:12.142Z,14.91
2022-10-05T20:28:40.058Z,14.73
2022-10-05T20:31:08.556Z,14.57
2022-10-05T20:33:36.491Z,14.49
2022-10-05T20:36:06.876Z,14.36
2022-10-05T20:38:40.597Z,14.36
2022-10-05T20:41:09.826Z,14.26
2022-10-05T20:43:39.288Z,14.18
2022-10-05T20:46:08.606Z,14.17
2022-10-05T20:48:36.905Z,14.11
2022-10-05T20:51:04.802Z,14.07
2022-10-05T20:53:33.692Z,14.07
2022-10-05T20:56:04.639Z,14.04
2022-10-05T20:58:32.679Z,14.05
2022-10-05T21:01:15.804Z,14.04
2022-10-05T21:03:44.036Z,14.05
2022-10-05T21:06:12.632Z,14.01
2022-10-05T21:08:40.504Z,14.00
2022-10-05T21:11:11.261Z,13.98
2022-10-05T21:13:45.569Z,13.97
2022-10-05T21:16:17.532Z,13.97
2022-10-05T21:18:49.398Z,13.98
2022-10-05T21:21:18.422Z,13.97
2022-10-05T21:23:48.234Z,13.97
2022-10-05T21:26:16.341Z,13.94
2022-10-05T21:28:44.318Z,14.00
2022-10-05T21:31:12.367Z,13.95
2022-10-05T21:33:40.601Z,13.93
2022-10-05T21:36:08.396Z,13.91
2022-10-05T21:38:37.107Z,13.88
2022-10-05T21:41:05.038Z,13.88
2022-10-05T21:43:33.542Z,13.83
2022-10-05T21:46:02.226Z,13.83
2022-10-05T21:48:32.994Z,13.83
2022-10-05T21:51:03.487Z,13.81
2022-10-05T21:53:35.025Z,13.80
2022-10-05T21:56:06.960Z,13.78
2022-10-05T21:58:37.715Z,13.77
2022-10-05T22:01:05.756Z,13.76
2022-10-05T22:03:34.072Z,13.74
2022-10-05T22:06:03.640Z,13.70
2022-10-05T22:08:33.572Z,13.71
2022-10-05T22:11:11.371Z,13.66
2022-10-05T22:13:48.382Z,13.70
2022-10-05T22:16:18.232Z,13.66
2022-10-05T22:18:46.338Z,13.62
2022-10-05T22:21:14.781Z,13.59
2022-10-05T22:23:45.047Z,13.56
2022-10-05T22:26:16.637Z,13.55
2022-10-05T22:28:46.695Z,13.46
2022-10-05T22:31:14.873Z,13.40
2022-10-05T22:33:42.694Z,13.30
2022-10-05T22:36:11.353Z,13.25
2022-10-05T22:38:39.076Z,13.21
2022-10-05T22:41:11.596Z,13.15
2022-10-05T22:43:39.656Z,13.12
2022-10-05T22:46:12.405Z,13.00
2022-10-05T22:48:40.906Z,12.95
2022-10-05T22:51:09.255Z,12.93
2022-10-05T22:53:37.337Z,12.85
2022-10-05T22:56:10.582Z,12.80
2022-10-05T22:58:38.894Z,12.79
2022-10-05T23:01:17.964Z,12.80
2022-10-05T23:03:46.157Z,12.76
2022-10-05T23:06:20.459Z,12.74
2022-10-05T23:08:51.410Z,12.70
2022-10-05T23:11:27.633Z,12.72
2022-10-05T23:13:56.955Z,12.72
2022-10-05T23:16:27.697Z,12.67
2022-10-05T23:18:58.390Z,12.67
2022-10-05T23:21:30.255Z,12.68
2022-10-05T23:23:58.063Z,12.72
2022-10-05T23:26:26.350Z,12.70
2022-10-05T23:28:54.280Z,12.74
2022-10-05T23:31:29.089Z,12.73
2022-10-05T23:33:56.781Z,12.70
2022-10-05T23:36:27.708Z,12.73
2022-10-05T23:38:55.546Z,12.70
2022-10-05T23:41:23.586Z,12.73
2022-10-05T23:43:52.020Z,12.77
2022-10-05T23:46:19.975Z,12.74
2022-10-05T23:48:50.212Z,12.74
2022-10-05T23:51:18.690Z,12.74
2022-10-05T23:53:46.561Z,12.73
2022-10-05T23:56:14.503Z,12.73
2022-10-05T23:58:42.475Z,12.68
